sensor_id;sensor_type;location;lat;lon;timestamp;P1;durP1;ratioP1;P2;durP2;ratioP2
39750;SDS011;37579;51.074;17.004;2023-03-11T00:01:05;3.40;;;1.70;;
39750;SDS011;37579;51.074;17.004;2023-03-11T00:03:31;3.40;;;1.55;;
39750;SDS011;37579;51.074;17.004;2023-03-11T00:05:59;6.00;;;1.55;;
39750;SDS011;37579;51.074;17.004;2023-03-11T00:08:26;5.97;;;1.73;;
39750;SDS011;37579;51.074;17.004;2023-03-11T00:10:53;3.97;;;1.40;;
39750;SDS011;37579;51.074;17.004;2023-03-11T00:13:21;4.18;;;1.48;;
39750;SDS011;37579;51.074;17.004;2023-03-11T00:15:47;3.90;;;1.38;;
39750;SDS011;37579;51.074;17.004;2023-03-11T00:18:15;2.78;;;1.20;;
39750;SDS011;37579;51.074;17.004;2023-03-11T00:20:42;2.58;;;1.15;;
39750;SDS011;37579;51.074;17.004;2023-03-11T00:23:10;3.65;;;1.60;;
39750;SDS011;37579;51.074;17.004;2023-03-11T00:25:37;2.88;;;1.73;;
39750;SDS011;37579;51.074;17.004;2023-03-11T00:28:03;2.85;;;1.30;;
39750;SDS011;37579;51.074;17.004;2023-03-11T00:30:35;4.28;;;1.90;;
39750;SDS011;37579;51.074;17.004;2023-03-11T00:33:02;2.60;;;1.23;;
39750;SDS011;37579;51.074;17.004;2023-03-11T00:35:31;2.45;;;1.20;;
39750;SDS011;37579;51.074;17.004;2023-03-11T00:37:58;2.75;;;1.33;;
39750;SDS011;37579;51.074;17.004;2023-03-11T00:40:27;3.70;;;1.45;;
39750;SDS011;37579;51.074;17.004;2023-03-11T00:42:54;3.50;;;1.48;;
39750;SDS011;37579;51.074;17.004;2023-03-11T00:45:21;2.60;;;1.40;;
39750;SDS011;37579;51.074;17.004;2023-03-11T00:47:47;4.00;;;1.50;;
39750;SDS011;37579;51.074;17.004;2023-03-11T00:50:18;2.90;;;1.40;;
39750;SDS011;37579;51.074;17.004;2023-03-11T00:52:47;2.70;;;1.38;;
39750;SDS011;37579;51.074;17.004;2023-03-11T00:55:14;2.67;;;1.20;;
39750;SDS011;37579;51.074;17.004;2023-03-11T00:57:45;3.40;;;1.30;;
39750;SDS011;37579;51.074;17.004;2023-03-11T01:00:12;3.13;;;1.33;;
39750;SDS011;37579;51.074;17.004;2023-03-11T01:02:40;3.38;;;1.30;;
39750;SDS011;37579;51.074;17.004;2023-03-11T01:05:05;2.65;;;1.58;;
39750;SDS011;37579;51.074;17.004;2023-03-11T01:07:32;2.92;;;1.40;;
39750;SDS011;37579;51.074;17.004;2023-03-11T01:09:58;2.78;;;1.10;;
39750;SDS011;37579;51.074;17.004;2023-03-11T01:12:26;2.30;;;1.08;;
39750;SDS011;37579;51.074;17.004;2023-03-11T01:14:52;2.65;;;1.40;;
39750;SDS011;37579;51.074;17.004;2023-03-11T01:17:17;1.92;;;0.90;;
39750;SDS011;37579;51.074;17.004;2023-03-11T01:19:43;1.83;;;0.98;;
39750;SDS011;37579;51.074;17.004;2023-03-11T01:22:09;2.60;;;0.95;;
39750;SDS011;37579;51.074;17.004;2023-03-11T01:24:35;2.33;;;0.95;;
39750;SDS011;37579;51.074;17.004;2023-03-11T01:27:03;2.45;;;1.10;;
39750;SDS011;37579;51.074;17.004;2023-03-11T01:29:28;4.18;;;1.10;;
39750;SDS011;37579;51.074;17.004;2023-03-11T01:31:55;2.63;;;1.20;;
39750;SDS011;37579;51.074;17.004;2023-03-11T01:34:20;2.10;;;1.40;;
39750;SDS011;37579;51.074;17.004;2023-03-11T01:36:46;1.67;;;1.08;;
39750;SDS011;37579;51.074;17.004;2023-03-11T01:39:12;2.72;;;0.95;;
39750;SDS011;37579;51.074;17.004;2023-03-11T01:41:38;2.47;;;1.02;;
39750;SDS011;37579;51.074;17.004;2023-03-11T01:44:04;2.30;;;1.05;;
39750;SDS011;37579;51.074;17.004;2023-03-11T01:46:34;2.55;;;1.00;;
39750;SDS011;37579;51.074;17.004;2023-03-11T01:49:27;2.08;;;0.95;;
39750;SDS011;37579;51.074;17.004;2023-03-11T01:51:55;1.77;;;1.13;;
39750;SDS011;37579;51.074;17.004;2023-03-11T01:54:25;3.42;;;1.02;;
39750;SDS011;37579;51.074;17.004;2023-03-11T01:56:55;2.53;;;0.90;;
39750;SDS011;37579;51.074;17.004;2023-03-11T01:59:26;1.80;;;0.80;;
39750;SDS011;37579;51.074;17.004;2023-03-11T02:01:59;1.30;;;0.73;;
39750;SDS011;37579;51.074;17.004;2023-03-11T02:04:32;2.88;;;0.90;;
39750;SDS011;37579;51.074;17.004;2023-03-11T02:07:00;1.92;;;1.00;;
39750;SDS011;37579;51.074;17.004;2023-03-11T02:09:27;2.53;;;0.75;;
39750;SDS011;37579;51.074;17.004;2023-03-11T02:11:53;2.38;;;1.05;;
39750;SDS011;37579;51.074;17.004;2023-03-11T02:14:20;1.90;;;0.85;;
39750;SDS011;37579;51.074;17.004;2023-03-11T02:16:47;1.58;;;1.00;;
39750;SDS011;37579;51.074;17.004;2023-03-11T02:21:59;1.92;;;0.70;;
39750;SDS011;37579;51.074;17.004;2023-03-11T02:24:30;2.28;;;0.90;;
39750;SDS011;37579;51.074;17.004;2023-03-11T02:27:07;1.70;;;0.95;;
39750;SDS011;37579;51.074;17.004;2023-03-11T02:29:35;2.03;;;0.90;;
39750;SDS011;37579;51.074;17.004;2023-03-11T02:32:04;1.58;;;0.75;;
39750;SDS011;37579;51.074;17.004;2023-03-11T02:34:33;1.70;;;0.80;;
39750;SDS011;37579;51.074;17.004;2023-03-11T02:37:11;2.72;;;0.95;;
39750;SDS011;37579;51.074;17.004;2023-03-11T02:39:43;1.10;;;0.70;;
39750;SDS011;37579;51.074;17.004;2023-03-11T02:42:14;1.90;;;0.80;;
39750;SDS011;37579;51.074;17.004;2023-03-11T02:45:00;1.42;;;0.82;;
39750;SDS011;37579;51.074;17.004;2023-03-11T02:47:30;1.95;;;0.70;;
39750;SDS011;37579;51.074;17.004;2023-03-11T02:49:57;0.73;;;0.55;;
39750;SDS011;37579;51.074;17.004;2023-03-11T02:52:24;1.98;;;0.85;;
39750;SDS011;37579;51.074;17.004;2023-03-11T02:54:53;1.58;;;0.52;;
39750;SDS011;37579;51.074;17.004;2023-03-11T02:57:19;1.45;;;0.60;;
39750;SDS011;37579;51.074;17.004;2023-03-11T02:59:45;1.80;;;0.75;;
39750;SDS011;37579;51.074;17.004;2023-03-11T03:02:12;1.95;;;0.52;;
39750;SDS011;37579;51.074;17.004;2023-03-11T03:04:38;1.95;;;0.98;;
39750;SDS011;37579;51.074;17.004;2023-03-11T03:07:05;1.08;;;0.55;;
39750;SDS011;37579;51.074;17.004;2023-03-11T03:09:31;1.10;;;0.70;;
39750;SDS011;37579;51.074;17.004;2023-03-11T03:11:57;0.70;;;0.50;;
39750;SDS011;37579;51.074;17.004;2023-03-11T03:14:23;0.98;;;0.52;;
39750;SDS011;37579;51.074;17.004;2023-03-11T03:16:49;1.45;;;0.80;;
39750;SDS011;37579;51.074;17.004;2023-03-11T03:19:17;1.50;;;0.70;;
39750;SDS011;37579;51.074;17.004;2023-03-11T03:21:43;1.92;;;0.68;;
39750;SDS011;37579;51.074;17.004;2023-03-11T03:24:09;2.58;;;0.70;;
39750;SDS011;37579;51.074;17.004;2023-03-11T03:26:36;1.23;;;0.60;;
39750;SDS011;37579;51.074;17.004;2023-03-11T03:29:03;1.88;;;0.90;;
39750;SDS011;37579;51.074;17.004;2023-03-11T03:31:30;1.13;;;0.50;;
39750;SDS011;37579;51.074;17.004;2023-03-11T03:33:57;1.30;;;0.80;;
39750;SDS011;37579;51.074;17.004;2023-03-11T03:36:23;2.00;;;0.68;;
39750;SDS011;37579;51.074;17.004;2023-03-11T03:38:54;1.15;;;0.55;;
39750;SDS011;37579;51.074;17.004;2023-03-11T03:41:23;1.15;;;0.60;;
39750;SDS011;37579;51.074;17.004;2023-03-11T03:43:50;2.28;;;0.77;;
39750;SDS011;37579;51.074;17.004;2023-03-11T03:46:16;1.00;;;0.68;;
39750;SDS011;37579;51.074;17.004;2023-03-11T03:48:45;1.52;;;0.63;;
39750;SDS011;37579;51.074;17.004;2023-03-11T03:51:12;1.25;;;0.50;;
39750;SDS011;37579;51.074;17.004;2023-03-11T03:54:05;1.10;;;0.50;;
39750;SDS011;37579;51.074;17.004;2023-03-11T03:56:31;1.33;;;0.52;;
39750;SDS011;37579;51.074;17.004;2023-03-11T03:58:57;2.47;;;0.85;;
39750;SDS011;37579;51.074;17.004;2023-03-11T04:01:28;0.40;;;0.30;;
39750;SDS011;37579;51.074;17.004;2023-03-11T04:03:55;1.25;;;0.52;;
39750;SDS011;37579;51.074;17.004;2023-03-11T04:06:22;0.90;;;0.50;;
39750;SDS011;37579;51.074;17.004;2023-03-11T04:08:55;1.23;;;0.63;;
39750;SDS011;37579;51.074;17.004;2023-03-11T04:11:26;0.98;;;0.45;;
39750;SDS011;37579;51.074;17.004;2023-03-11T04:13:52;2.67;;;0.50;;
39750;SDS011;37579;51.074;17.004;2023-03-11T04:16:19;0.65;;;0.50;;
39750;SDS011;37579;51.074;17.004;2023-03-11T04:18:47;1.10;;;0.50;;
39750;SDS011;37579;51.074;17.004;2023-03-11T04:21:15;0.85;;;0.45;;
39750;SDS011;37579;51.074;17.004;2023-03-11T04:23:41;1.13;;;0.30;;
39750;SDS011;37579;51.074;17.004;2023-03-11T04:26:07;0.95;;;0.57;;
39750;SDS011;37579;51.074;17.004;2023-03-11T04:28:35;1.17;;;0.40;;
39750;SDS011;37579;51.074;17.004;2023-03-11T04:31:01;0.70;;;0.40;;
39750;SDS011;37579;51.074;17.004;2023-03-11T04:33:29;0.68;;;0.30;;
39750;SDS011;37579;51.074;17.004;2023-03-11T04:35:55;1.33;;;0.40;;
39750;SDS011;37579;51.074;17.004;2023-03-11T04:38:21;1.02;;;0.52;;
39750;SDS011;37579;51.074;17.004;2023-03-11T04:40:47;1.55;;;0.40;;
39750;SDS011;37579;51.074;17.004;2023-03-11T04:43:13;1.00;;;0.30;;
39750;SDS011;37579;51.074;17.004;2023-03-11T04:45:39;1.02;;;0.40;;
39750;SDS011;37579;51.074;17.004;2023-03-11T04:48:07;1.38;;;0.40;;
39750;SDS011;37579;51.074;17.004;2023-03-11T04:50:34;0.55;;;0.40;;
39750;SDS011;37579;51.074;17.004;2023-03-11T04:53:01;0.68;;;0.30;;
39750;SDS011;37579;51.074;17.004;2023-03-11T04:55:27;0.50;;;0.30;;
39750;SDS011;37579;51.074;17.004;2023-03-11T04:57:53;1.90;;;0.30;;
39750;SDS011;37579;51.074;17.004;2023-03-11T05:00:19;0.73;;;0.30;;
39750;SDS011;37579;51.074;17.004;2023-03-11T05:02:55;0.40;;;0.25;;
39750;SDS011;37579;51.074;17.004;2023-03-11T05:05:22;1.60;;;0.30;;
39750;SDS011;37579;51.074;17.004;2023-03-11T05:07:48;0.45;;;0.30;;
39750;SDS011;37579;51.074;17.004;2023-03-11T05:10:15;1.58;;;0.60;;
39750;SDS011;37579;51.074;17.004;2023-03-11T05:12:47;0.60;;;0.30;;
39750;SDS011;37579;51.074;17.004;2023-03-11T05:15:13;0.60;;;0.30;;
39750;SDS011;37579;51.074;17.004;2023-03-11T05:17:39;0.38;;;0.20;;
39750;SDS011;37579;51.074;17.004;2023-03-11T05:20:06;0.52;;;0.30;;
39750;SDS011;37579;51.074;17.004;2023-03-11T05:22:33;0.52;;;0.20;;
39750;SDS011;37579;51.074;17.004;2023-03-11T05:24:59;0.68;;;0.30;;
39750;SDS011;37579;51.074;17.004;2023-03-11T05:27:25;0.30;;;0.20;;
39750;SDS011;37579;51.074;17.004;2023-03-11T05:29:54;0.43;;;0.30;;
39750;SDS011;37579;51.074;17.004;2023-03-11T05:32:21;0.57;;;0.28;;
39750;SDS011;37579;51.074;17.004;2023-03-11T05:34:48;0.60;;;0.20;;
39750;SDS011;37579;51.074;17.004;2023-03-11T05:37:15;0.47;;;0.28;;
39750;SDS011;37579;51.074;17.004;2023-03-11T05:39:42;0.35;;;0.22;;
39750;SDS011;37579;51.074;17.004;2023-03-11T05:42:09;0.40;;;0.30;;
39750;SDS011;37579;51.074;17.004;2023-03-11T05:44:36;0.73;;;0.30;;
39750;SDS011;37579;51.074;17.004;2023-03-11T05:47:02;0.77;;;0.30;;
39750;SDS011;37579;51.074;17.004;2023-03-11T05:49:30;0.88;;;0.30;;
39750;SDS011;37579;51.074;17.004;2023-03-11T05:51:56;0.47;;;0.28;;
39750;SDS011;37579;51.074;17.004;2023-03-11T05:54:23;0.95;;;0.20;;
39750;SDS011;37579;51.074;17.004;2023-03-11T05:56:50;0.47;;;0.10;;
39750;SDS011;37579;51.074;17.004;2023-03-11T05:59:17;0.25;;;0.20;;
39750;SDS011;37579;51.074;17.004;2023-03-11T06:01:49;0.80;;;0.40;;
39750;SDS011;37579;51.074;17.004;2023-03-11T06:04:15;0.30;;;0.10;;
39750;SDS011;37579;51.074;17.004;2023-03-11T06:06:41;0.77;;;0.20;;
39750;SDS011;37579;51.074;17.004;2023-03-11T06:09:12;1.05;;;0.17;;
39750;SDS011;37579;51.074;17.004;2023-03-11T06:11:39;0.40;;;0.20;;
39750;SDS011;37579;51.074;17.004;2023-03-11T06:14:05;0.45;;;0.25;;
39750;SDS011;37579;51.074;17.004;2023-03-11T06:16:31;0.20;;;0.10;;
39750;SDS011;37579;51.074;17.004;2023-03-11T06:19:00;0.60;;;0.30;;
39750;SDS011;37579;51.074;17.004;2023-03-11T06:21:29;0.65;;;0.20;;
39750;SDS011;37579;51.074;17.004;2023-03-11T06:23:55;0.20;;;0.20;;
39750;SDS011;37579;51.074;17.004;2023-03-11T06:26:21;0.35;;;0.20;;
39750;SDS011;37579;51.074;17.004;2023-03-11T06:28:47;0.88;;;0.22;;
39750;SDS011;37579;51.074;17.004;2023-03-11T06:31:15;0.30;;;0.20;;
39750;SDS011;37579;51.074;17.004;2023-03-11T06:33:44;0.38;;;0.20;;
39750;SDS011;37579;51.074;17.004;2023-03-11T06:36:11;0.55;;;0.20;;
39750;SDS011;37579;51.074;17.004;2023-03-11T06:38:38;0.25;;;0.15;;
39750;SDS011;37579;51.074;17.004;2023-03-11T06:41:04;0.88;;;0.20;;
39750;SDS011;37579;51.074;17.004;2023-03-11T06:43:33;0.30;;;0.20;;
39750;SDS011;37579;51.074;17.004;2023-03-11T06:46:01;0.75;;;0.22;;
39750;SDS011;37579;51.074;17.004;2023-03-11T06:48:37;0.50;;;0.30;;
39750;SDS011;37579;51.074;17.004;2023-03-11T06:51:03;0.32;;;0.20;;
39750;SDS011;37579;51.074;17.004;2023-03-11T06:53:31;0.52;;;0.30;;
39750;SDS011;37579;51.074;17.004;2023-03-11T06:56:19;0.57;;;0.40;;
39750;SDS011;37579;51.074;17.004;2023-03-11T06:58:47;0.80;;;0.35;;
39750;SDS011;37579;51.074;17.004;2023-03-11T07:01:17;0.30;;;0.10;;
39750;SDS011;37579;51.074;17.004;2023-03-11T07:03:45;0.35;;;0.20;;
39750;SDS011;37579;51.074;17.004;2023-03-11T07:06:13;0.47;;;0.40;;
39750;SDS011;37579;51.074;17.004;2023-03-11T07:08:41;0.57;;;0.30;;
39750;SDS011;37579;51.074;17.004;2023-03-11T07:14:06;0.40;;;0.20;;
39750;SDS011;37579;51.074;17.004;2023-03-11T07:16:37;0.50;;;0.20;;
39750;SDS011;37579;51.074;17.004;2023-03-11T07:19:08;0.55;;;0.25;;
39750;SDS011;37579;51.074;17.004;2023-03-11T07:21:34;0.40;;;0.20;;
39750;SDS011;37579;51.074;17.004;2023-03-11T07:24:00;0.52;;;0.20;;
39750;SDS011;37579;51.074;17.004;2023-03-11T07:26:28;1.33;;;0.20;;
39750;SDS011;37579;51.074;17.004;2023-03-11T07:28:55;0.50;;;0.20;;
39750;SDS011;37579;51.074;17.004;2023-03-11T07:31:40;0.55;;;0.22;;
39750;SDS011;37579;51.074;17.004;2023-03-11T07:34:06;1.33;;;0.28;;
39750;SDS011;37579;51.074;17.004;2023-03-11T07:36:38;0.35;;;0.28;;
39750;SDS011;37579;51.074;17.004;2023-03-11T07:39:05;0.30;;;0.10;;
39750;SDS011;37579;51.074;17.004;2023-03-11T07:41:33;0.90;;;0.40;;
39750;SDS011;37579;51.074;17.004;2023-03-11T07:44:00;0.38;;;0.20;;
39750;SDS011;37579;51.074;17.004;2023-03-11T07:46:27;0.60;;;0.20;;
39750;SDS011;37579;51.074;17.004;2023-03-11T07:48:54;1.50;;;0.45;;
39750;SDS011;37579;51.074;17.004;2023-03-11T07:51:21;0.45;;;0.15;;
39750;SDS011;37579;51.074;17.004;2023-03-11T07:53:50;1.65;;;0.35;;
39750;SDS011;37579;51.074;17.004;2023-03-11T07:56:18;0.30;;;0.20;;
39750;SDS011;37579;51.074;17.004;2023-03-11T07:58:45;0.40;;;0.10;;
39750;SDS011;37579;51.074;17.004;2023-03-11T08:01:15;0.88;;;0.40;;
39750;SDS011;37579;51.074;17.004;2023-03-11T08:03:43;1.50;;;0.30;;
39750;SDS011;37579;51.074;17.004;2023-03-11T08:06:11;0.32;;;0.20;;
39750;SDS011;37579;51.074;17.004;2023-03-11T08:08:38;0.38;;;0.20;;
39750;SDS011;37579;51.074;17.004;2023-03-11T08:11:04;0.60;;;0.25;;
39750;SDS011;37579;51.074;17.004;2023-03-11T08:13:31;0.88;;;0.30;;
39750;SDS011;37579;51.074;17.004;2023-03-11T08:15:57;2.53;;;0.32;;
39750;SDS011;37579;51.074;17.004;2023-03-11T08:18:23;1.77;;;0.30;;
39750;SDS011;37579;51.074;17.004;2023-03-11T08:20:49;0.55;;;0.30;;
39750;SDS011;37579;51.074;17.004;2023-03-11T08:23:15;2.92;;;0.35;;
39750;SDS011;37579;51.074;17.004;2023-03-11T08:25:40;2.65;;;0.30;;
39750;SDS011;37579;51.074;17.004;2023-03-11T08:28:07;2.30;;;0.30;;
39750;SDS011;37579;51.074;17.004;2023-03-11T08:30:33;2.53;;;0.60;;
39750;SDS011;37579;51.074;17.004;2023-03-11T08:33:26;1.70;;;0.30;;
39750;SDS011;37579;51.074;17.004;2023-03-11T08:35:52;0.95;;;0.22;;
39750;SDS011;37579;51.074;17.004;2023-03-11T08:38:18;1.73;;;0.50;;
39750;SDS011;37579;51.074;17.004;2023-03-11T08:40:44;1.33;;;0.30;;
39750;SDS011;37579;51.074;17.004;2023-03-11T08:43:13;0.30;;;0.20;;
39750;SDS011;37579;51.074;17.004;2023-03-11T08:45:40;2.35;;;0.22;;
39750;SDS011;37579;51.074;17.004;2023-03-11T08:48:07;1.65;;;0.30;;
39750;SDS011;37579;51.074;17.004;2023-03-11T08:50:34;1.52;;;0.20;;
39750;SDS011;37579;51.074;17.004;2023-03-11T08:53:00;0.50;;;0.20;;
39750;SDS011;37579;51.074;17.004;2023-03-11T08:55:27;1.88;;;0.40;;
39750;SDS011;37579;51.074;17.004;2023-03-11T08:57:54;2.85;;;0.30;;
39750;SDS011;37579;51.074;17.004;2023-03-11T09:00:20;0.82;;;0.32;;
39750;SDS011;37579;51.074;17.004;2023-03-11T09:02:46;2.15;;;0.43;;
39750;SDS011;37579;51.074;17.004;2023-03-11T09:05:13;0.55;;;0.35;;
39750;SDS011;37579;51.074;17.004;2023-03-11T09:07:39;2.50;;;0.43;;
39750;SDS011;37579;51.074;17.004;2023-03-11T09:10:05;1.52;;;0.20;;
39750;SDS011;37579;51.074;17.004;2023-03-11T09:12:32;3.83;;;0.38;;
39750;SDS011;37579;51.074;17.004;2023-03-11T09:14:58;1.90;;;0.50;;
39750;SDS011;37579;51.074;17.004;2023-03-11T09:17:24;1.17;;;0.35;;
39750;SDS011;37579;51.074;17.004;2023-03-11T09:19:50;1.63;;;0.40;;
39750;SDS011;37579;51.074;17.004;2023-03-11T09:22:16;1.67;;;0.40;;
39750;SDS011;37579;51.074;17.004;2023-03-11T09:24:42;2.35;;;0.68;;
39750;SDS011;37579;51.074;17.004;2023-03-11T09:27:07;2.65;;;0.60;;
39750;SDS011;37579;51.074;17.004;2023-03-11T09:29:33;1.67;;;0.40;;
39750;SDS011;37579;51.074;17.004;2023-03-11T09:31:59;1.98;;;0.43;;
39750;SDS011;37579;51.074;17.004;2023-03-11T09:34:25;1.42;;;0.60;;
39750;SDS011;37579;51.074;17.004;2023-03-11T09:36:51;2.88;;;0.50;;
39750;SDS011;37579;51.074;17.004;2023-03-11T09:39:17;2.22;;;0.60;;
39750;SDS011;37579;51.074;17.004;2023-03-11T09:41:51;7.47;;;0.50;;
39750;SDS011;37579;51.074;17.004;2023-03-11T09:49:36;1.23;;;0.80;;
39750;SDS011;37579;51.074;17.004;2023-03-11T09:52:11;3.60;;;0.90;;
39750;SDS011;37579;51.074;17.004;2023-03-11T09:54:47;3.20;;;1.02;;
39750;SDS011;37579;51.074;17.004;2023-03-11T09:59:45;2.85;;;1.00;;
39750;SDS011;37579;51.074;17.004;2023-03-11T10:02:19;4.43;;;1.10;;
39750;SDS011;37579;51.074;17.004;2023-03-11T10:04:53;4.28;;;1.30;;
39750;SDS011;37579;51.074;17.004;2023-03-11T10:07:38;4.82;;;1.40;;
39750;SDS011;37579;51.074;17.004;2023-03-11T10:10:05;3.10;;;1.17;;
39750;SDS011;37579;51.074;17.004;2023-03-11T10:15:44;4.78;;;1.42;;
39750;SDS011;37579;51.074;17.004;2023-03-11T10:23:49;6.50;;;1.17;;
39750;SDS011;37579;51.074;17.004;2023-03-11T10:26:42;3.90;;;1.10;;
39750;SDS011;37579;51.074;17.004;2023-03-11T10:29:25;3.40;;;1.30;;
39750;SDS011;37579;51.074;17.004;2023-03-11T10:37:28;3.88;;;0.98;;
39750;SDS011;37579;51.074;17.004;2023-03-11T10:40:23;2.67;;;1.13;;
39750;SDS011;37579;51.074;17.004;2023-03-11T10:42:50;2.38;;;1.10;;
39750;SDS011;37579;51.074;17.004;2023-03-11T10:45:19;1.50;;;0.80;;
39750;SDS011;37579;51.074;17.004;2023-03-11T10:47:47;1.88;;;0.98;;
39750;SDS011;37579;51.074;17.004;2023-03-11T10:50:17;5.55;;;1.20;;
39750;SDS011;37579;51.074;17.004;2023-03-11T10:55:47;2.63;;;1.15;;
39750;SDS011;37579;51.074;17.004;2023-03-11T10:58:24;4.32;;;1.13;;
39750;SDS011;37579;51.074;17.004;2023-03-11T11:01:02;4.75;;;1.00;;
39750;SDS011;37579;51.074;17.004;2023-03-11T11:03:37;5.57;;;1.60;;
39750;SDS011;37579;51.074;17.004;2023-03-11T11:06:08;6.05;;;0.95;;
39750;SDS011;37579;51.074;17.004;2023-03-11T11:08:45;3.17;;;1.10;;
39750;SDS011;37579;51.074;17.004;2023-03-11T11:11:26;4.97;;;1.00;;
39750;SDS011;37579;51.074;17.004;2023-03-11T11:14:00;10.10;;;1.55;;
39750;SDS011;37579;51.074;17.004;2023-03-11T11:16:27;4.30;;;0.98;;
39750;SDS011;37579;51.074;17.004;2023-03-11T11:18:56;4.57;;;1.35;;
39750;SDS011;37579;51.074;17.004;2023-03-11T11:21:36;4.82;;;1.00;;
39750;SDS011;37579;51.074;17.004;2023-03-11T11:26:40;5.47;;;1.38;;
39750;SDS011;37579;51.074;17.004;2023-03-11T11:31:37;4.22;;;1.25;;
39750;SDS011;37579;51.074;17.004;2023-03-11T11:34:21;2.88;;;1.05;;
39750;SDS011;37579;51.074;17.004;2023-03-11T11:36:55;8.68;;;1.73;;
39750;SDS011;37579;51.074;17.004;2023-03-11T11:39:23;4.65;;;0.98;;
39750;SDS011;37579;51.074;17.004;2023-03-11T11:41:51;2.85;;;1.13;;
39750;SDS011;37579;51.074;17.004;2023-03-11T11:44:20;4.55;;;1.20;;
39750;SDS011;37579;51.074;17.004;2023-03-11T11:47:02;2.22;;;1.27;;
39750;SDS011;37579;51.074;17.004;2023-03-11T11:49:34;21.90;;;3.28;;
39750;SDS011;37579;51.074;17.004;2023-03-11T11:54:37;6.07;;;1.17;;
39750;SDS011;37579;51.074;17.004;2023-03-11T11:57:12;6.32;;;1.23;;
39750;SDS011;37579;51.074;17.004;2023-03-11T11:59:40;5.03;;;1.13;;
39750;SDS011;37579;51.074;17.004;2023-03-11T12:07:31;3.65;;;0.85;;
39750;SDS011;37579;51.074;17.004;2023-03-11T12:19:15;3.87;;;1.37;;
39750;SDS011;37579;51.074;17.004;2023-03-11T12:27:40;7.00;;;1.88;;
39750;SDS011;37579;51.074;17.004;2023-03-11T12:30:26;3.63;;;1.80;;
39750;SDS011;37579;51.074;17.004;2023-03-11T12:33:03;3.70;;;1.75;;
39750;SDS011;37579;51.074;17.004;2023-03-11T12:35:52;6.22;;;1.60;;
39750;SDS011;37579;51.074;17.004;2023-03-11T12:38:33;5.13;;;1.88;;
39750;SDS011;37579;51.074;17.004;2023-03-11T12:46:13;8.32;;;3.05;;
39750;SDS011;37579;51.074;17.004;2023-03-11T12:48:49;11.90;;;7.30;;
39750;SDS011;37579;51.074;17.004;2023-03-11T12:54:20;27.75;;;18.20;;
39750;SDS011;37579;51.074;17.004;2023-03-11T13:08:45;26.47;;;15.43;;
39750;SDS011;37579;51.074;17.004;2023-03-11T13:19:58;22.60;;;13.57;;
39750;SDS011;37579;51.074;17.004;2023-03-11T13:22:41;21.42;;;12.35;;
39750;SDS011;37579;51.074;17.004;2023-03-11T13:25:24;20.52;;;11.60;;
39750;SDS011;37579;51.074;17.004;2023-03-11T13:27:57;19.13;;;10.50;;
39750;SDS011;37579;51.074;17.004;2023-03-11T13:30:41;24.77;;;10.57;;
39750;SDS011;37579;51.074;17.004;2023-03-11T13:33:51;17.52;;;10.07;;
39750;SDS011;37579;51.074;17.004;2023-03-11T13:38:55;14.27;;;9.15;;
39750;SDS011;37579;51.074;17.004;2023-03-11T13:41:35;16.33;;;9.20;;
39750;SDS011;37579;51.074;17.004;2023-03-11T13:44:13;16.58;;;8.75;;
39750;SDS011;37579;51.074;17.004;2023-03-11T13:49:34;15.40;;;6.40;;
39750;SDS011;37579;51.074;17.004;2023-03-11T13:52:30;9.77;;;5.65;;
39750;SDS011;37579;51.074;17.004;2023-03-11T13:55:03;7.22;;;4.15;;
39750;SDS011;37579;51.074;17.004;2023-03-11T13:57:32;6.72;;;4.20;;
39750;SDS011;37579;51.074;17.004;2023-03-11T14:00:11;7.10;;;3.38;;
39750;SDS011;37579;51.074;17.004;2023-03-11T14:02:45;8.48;;;3.47;;
39750;SDS011;37579;51.074;17.004;2023-03-11T14:05:19;9.73;;;3.78;;
39750;SDS011;37579;51.074;17.004;2023-03-11T14:07:51;8.20;;;3.45;;
39750;SDS011;37579;51.074;17.004;2023-03-11T14:12:45;8.65;;;3.53;;
39750;SDS011;37579;51.074;17.004;2023-03-11T14:15:16;9.65;;;3.40;;
39750;SDS011;37579;51.074;17.004;2023-03-11T14:17:45;7.38;;;3.67;;
39750;SDS011;37579;51.074;17.004;2023-03-11T14:22:42;7.10;;;2.80;;
39750;SDS011;37579;51.074;17.004;2023-03-11T14:25:12;8.85;;;3.17;;
39750;SDS011;37579;51.074;17.004;2023-03-11T14:27:45;6.55;;;3.58;;
39750;SDS011;37579;51.074;17.004;2023-03-11T14:30:19;5.90;;;3.03;;
39750;SDS011;37579;51.074;17.004;2023-03-11T14:35:30;6.18;;;2.70;;
39750;SDS011;37579;51.074;17.004;2023-03-11T14:37:58;5.45;;;2.50;;
39750;SDS011;37579;51.074;17.004;2023-03-11T14:43:01;6.68;;;3.00;;
39750;SDS011;37579;51.074;17.004;2023-03-11T14:45:31;5.93;;;3.33;;
39750;SDS011;37579;51.074;17.004;2023-03-11T14:50:48;4.88;;;2.17;;
39750;SDS011;37579;51.074;17.004;2023-03-11T14:53:16;5.47;;;2.42;;
39750;SDS011;37579;51.074;17.004;2023-03-11T14:58:33;6.30;;;2.17;;
39750;SDS011;37579;51.074;17.004;2023-03-11T15:01:05;6.97;;;2.20;;
39750;SDS011;37579;51.074;17.004;2023-03-11T15:03:39;4.32;;;2.38;;
39750;SDS011;37579;51.074;17.004;2023-03-11T15:06:14;4.82;;;2.83;;
39750;SDS011;37579;51.074;17.004;2023-03-11T15:08:49;7.47;;;3.27;;
39750;SDS011;37579;51.074;17.004;2023-03-11T15:11:26;9.30;;;3.30;;
39750;SDS011;37579;51.074;17.004;2023-03-11T15:13:54;8.48;;;3.22;;
39750;SDS011;37579;51.074;17.004;2023-03-11T15:16:34;7.35;;;3.30;;
39750;SDS011;37579;51.074;17.004;2023-03-11T15:19:19;7.82;;;3.60;;
39750;SDS011;37579;51.074;17.004;2023-03-11T15:21:47;8.07;;;3.60;;
39750;SDS011;37579;51.074;17.004;2023-03-11T15:24:18;7.07;;;3.17;;
39750;SDS011;37579;51.074;17.004;2023-03-11T15:26:53;6.88;;;2.97;;
39750;SDS011;37579;51.074;17.004;2023-03-11T15:31:48;6.68;;;2.97;;
39750;SDS011;37579;51.074;17.004;2023-03-11T15:39:19;9.25;;;2.75;;
39750;SDS011;37579;51.074;17.004;2023-03-11T15:44:39;6.35;;;2.60;;
39750;SDS011;37579;51.074;17.004;2023-03-11T15:47:24;9.43;;;2.72;;
39750;SDS011;37579;51.074;17.004;2023-03-11T15:49:50;8.45;;;2.63;;
39750;SDS011;37579;51.074;17.004;2023-03-11T15:52:16;6.70;;;2.60;;
39750;SDS011;37579;51.074;17.004;2023-03-11T15:54:44;8.30;;;2.55;;
39750;SDS011;37579;51.074;17.004;2023-03-11T15:57:15;6.32;;;1.90;;
39750;SDS011;37579;51.074;17.004;2023-03-11T15:59:50;6.43;;;2.50;;
39750;SDS011;37579;51.074;17.004;2023-03-11T16:02:20;6.65;;;2.25;;
39750;SDS011;37579;51.074;17.004;2023-03-11T16:04:47;9.73;;;2.72;;
39750;SDS011;37579;51.074;17.004;2023-03-11T16:07:14;6.72;;;2.05;;
39750;SDS011;37579;51.074;17.004;2023-03-11T16:09:40;9.23;;;2.22;;
39750;SDS011;37579;51.074;17.004;2023-03-11T16:12:16;7.18;;;2.20;;
39750;SDS011;37579;51.074;17.004;2023-03-11T16:14:44;8.18;;;2.00;;
39750;SDS011;37579;51.074;17.004;2023-03-11T16:17:11;7.68;;;1.90;;
39750;SDS011;37579;51.074;17.004;2023-03-11T16:19:42;10.38;;;2.17;;
39750;SDS011;37579;51.074;17.004;2023-03-11T16:22:21;5.82;;;1.80;;
39750;SDS011;37579;51.074;17.004;2023-03-11T16:24:53;7.97;;;3.10;;
39750;SDS011;37579;51.074;17.004;2023-03-11T16:27:19;7.70;;;3.38;;
39750;SDS011;37579;51.074;17.004;2023-03-11T16:29:45;8.75;;;2.50;;
39750;SDS011;37579;51.074;17.004;2023-03-11T16:32:11;5.53;;;2.20;;
39750;SDS011;37579;51.074;17.004;2023-03-11T16:34:38;7.43;;;1.90;;
39750;SDS011;37579;51.074;17.004;2023-03-11T16:37:04;7.32;;;1.80;;
39750;SDS011;37579;51.074;17.004;2023-03-11T16:39:31;11.05;;;2.17;;
39750;SDS011;37579;51.074;17.004;2023-03-11T16:41:57;10.52;;;2.08;;
39750;SDS011;37579;51.074;17.004;2023-03-11T16:44:23;4.20;;;2.47;;
39750;SDS011;37579;51.074;17.004;2023-03-11T16:46:49;7.55;;;2.00;;